sensor_id;sensor_type;location;lat;lon;timestamp;P1;durP1;ratioP1;P2;durP2;ratioP2
76656;SDS011;65576;47.714;9.414;2024-03-22T00:01:03;1.27;;;1.10;;
76656;SDS011;65576;47.714;9.414;2024-03-22T00:03:29;1.25;;;1.15;;
76656;SDS011;65576;47.714;9.414;2024-03-22T00:05:54;1.80;;;1.60;;
76656;SDS011;65576;47.714;9.414;2024-03-22T00:08:20;1.73;;;1.50;;
76656;SDS011;65576;47.714;9.414;2024-03-22T00:10:45;1.88;;;1.70;;
76656;SDS011;65576;47.714;9.414;2024-03-22T00:13:10;2.78;;;2.08;;
76656;SDS011;65576;47.714;9.414;2024-03-22T00:15:35;2.00;;;1.77;;
76656;SDS011;65576;47.714;9.414;2024-03-22T00:18:02;2.42;;;1.80;;
76656;SDS011;65576;47.714;9.414;2024-03-22T00:20:27;2.85;;;1.20;;
76656;SDS011;65576;47.714;9.414;2024-03-22T00:22:52;1.52;;;1.40;;
76656;SDS011;65576;47.714;9.414;2024-03-22T00:25:18;2.38;;;1.67;;
76656;SDS011;65576;47.714;9.414;2024-03-22T00:27:43;1.58;;;1.42;;
76656;SDS011;65576;47.714;9.414;2024-03-22T00:30:08;5.30;;;1.67;;
76656;SDS011;65576;47.714;9.414;2024-03-22T00:32:34;3.17;;;2.47;;
76656;SDS011;65576;47.714;9.414;2024-03-22T00:34:59;2.45;;;1.42;;
76656;SDS011;65576;47.714;9.414;2024-03-22T00:37:24;1.58;;;1.30;;
76656;SDS011;65576;47.714;9.414;2024-03-22T00:39:50;1.95;;;1.52;;
76656;SDS011;65576;47.714;9.414;2024-03-22T00:42:15;4.68;;;2.03;;
76656;SDS011;65576;47.714;9.414;2024-03-22T00:44:40;1.75;;;1.40;;
76656;SDS011;65576;47.714;9.414;2024-03-22T00:47:06;2.50;;;1.70;;
76656;SDS011;65576;47.714;9.414;2024-03-22T00:49:31;3.60;;;1.88;;
76656;SDS011;65576;47.714;9.414;2024-03-22T00:51:56;2.15;;;1.73;;
76656;SDS011;65576;47.714;9.414;2024-03-22T00:54:22;2.97;;;1.48;;
76656;SDS011;65576;47.714;9.414;2024-03-22T00:56:48;2.17;;;1.98;;
76656;SDS011;65576;47.714;9.414;2024-03-22T00:59:13;2.20;;;1.30;;
76656;SDS011;65576;47.714;9.414;2024-03-22T01:01:38;3.65;;;2.00;;
76656;SDS011;65576;47.714;9.414;2024-03-22T01:04:04;4.22;;;1.58;;
76656;SDS011;65576;47.714;9.414;2024-03-22T01:06:29;1.70;;;1.60;;
76656;SDS011;65576;47.714;9.414;2024-03-22T01:08:54;1.58;;;1.23;;
76656;SDS011;65576;47.714;9.414;2024-03-22T01:11:19;4.60;;;1.92;;
76656;SDS011;65576;47.714;9.414;2024-03-22T01:13:45;3.63;;;1.30;;
76656;SDS011;65576;47.714;9.414;2024-03-22T01:16:10;2.05;;;1.70;;
76656;SDS011;65576;47.714;9.414;2024-03-22T01:18:36;3.75;;;2.13;;
76656;SDS011;65576;47.714;9.414;2024-03-22T01:21:02;1.77;;;1.48;;
76656;SDS011;65576;47.714;9.414;2024-03-22T01:23:27;1.10;;;0.98;;
76656;SDS011;65576;47.714;9.414;2024-03-22T01:25:52;8.27;;;2.28;;
76656;SDS011;65576;47.714;9.414;2024-03-22T01:28:18;2.20;;;1.30;;
76656;SDS011;65576;47.714;9.414;2024-03-22T01:30:43;2.00;;;1.58;;
76656;SDS011;65576;47.714;9.414;2024-03-22T01:33:09;1.40;;;1.08;;
76656;SDS011;65576;47.714;9.414;2024-03-22T01:35:34;4.97;;;1.55;;
76656;SDS011;65576;47.714;9.414;2024-03-22T01:37:59;1.65;;;1.23;;
76656;SDS011;65576;47.714;9.414;2024-03-22T01:40:24;1.40;;;1.30;;
76656;SDS011;65576;47.714;9.414;2024-03-22T01:42:52;2.60;;;1.98;;
76656;SDS011;65576;47.714;9.414;2024-03-22T01:45:18;4.65;;;1.27;;
76656;SDS011;65576;47.714;9.414;2024-03-22T01:47:45;1.67;;;1.52;;
76656;SDS011;65576;47.714;9.414;2024-03-22T01:50:10;1.50;;;1.33;;
76656;SDS011;65576;47.714;9.414;2024-03-22T01:52:36;1.13;;;1.02;;
76656;SDS011;65576;47.714;9.414;2024-03-22T01:55:02;2.15;;;1.95;;
76656;SDS011;65576;47.714;9.414;2024-03-22T01:57:29;1.20;;;1.10;;
76656;SDS011;65576;47.714;9.414;2024-03-22T01:59:55;2.53;;;1.80;;
76656;SDS011;65576;47.714;9.414;2024-03-22T02:02:20;1.73;;;1.60;;
76656;SDS011;65576;47.714;9.414;2024-03-22T02:04:46;1.20;;;0.90;;
76656;SDS011;65576;47.714;9.414;2024-03-22T02:07:11;0.85;;;0.85;;
76656;SDS011;65576;47.714;9.414;2024-03-22T02:09:37;3.80;;;1.65;;
76656;SDS011;65576;47.714;9.414;2024-03-22T02:12:02;1.83;;;1.45;;
76656;SDS011;65576;47.714;9.414;2024-03-22T02:14:27;1.08;;;1.05;;
76656;SDS011;65576;47.714;9.414;2024-03-22T02:16:53;1.08;;;1.00;;
76656;SDS011;65576;47.714;9.414;2024-03-22T02:19:18;5.53;;;1.38;;
76656;SDS011;65576;47.714;9.414;2024-03-22T02:21:43;1.45;;;0.98;;
76656;SDS011;65576;47.714;9.414;2024-03-22T02:24:09;1.65;;;1.55;;
76656;SDS011;65576;47.714;9.414;2024-03-22T02:26:34;3.03;;;1.20;;
76656;SDS011;65576;47.714;9.414;2024-03-22T02:28:59;1.52;;;1.40;;
76656;SDS011;65576;47.714;9.414;2024-03-22T02:31:24;4.43;;;2.15;;
76656;SDS011;65576;47.714;9.414;2024-03-22T02:33:51;1.58;;;1.40;;
76656;SDS011;65576;47.714;9.414;2024-03-22T02:36:17;2.28;;;1.50;;
76656;SDS011;65576;47.714;9.414;2024-03-22T02:38:42;1.33;;;1.15;;
76656;SDS011;65576;47.714;9.414;2024-03-22T02:41:08;0.98;;;0.88;;
76656;SDS011;65576;47.714;9.414;2024-03-22T02:43:33;1.63;;;1.52;;
76656;SDS011;65576;47.714;9.414;2024-03-22T02:45:58;1.38;;;1.13;;
76656;SDS011;65576;47.714;9.414;2024-03-22T02:48:23;0.93;;;0.93;;
76656;SDS011;65576;47.714;9.414;2024-03-22T02:50:49;1.42;;;1.25;;
76656;SDS011;65576;47.714;9.414;2024-03-22T02:53:14;0.80;;;0.80;;
76656;SDS011;65576;47.714;9.414;2024-03-22T02:55:39;2.05;;;1.85;;
76656;SDS011;65576;47.714;9.414;2024-03-22T02:58:06;1.23;;;1.05;;
76656;SDS011;65576;47.714;9.414;2024-03-22T03:00:35;2.85;;;1.85;;
76656;SDS011;65576;47.714;9.414;2024-03-22T03:03:01;2.03;;;1.17;;
76656;SDS011;65576;47.714;9.414;2024-03-22T03:05:26;1.25;;;0.95;;
76656;SDS011;65576;47.714;9.414;2024-03-22T03:07:51;1.05;;;0.90;;
76656;SDS011;65576;47.714;9.414;2024-03-22T03:10:16;4.32;;;2.30;;
76656;SDS011;65576;47.714;9.414;2024-03-22T03:12:42;0.60;;;0.60;;
76656;SDS011;65576;47.714;9.414;2024-03-22T03:15:07;2.65;;;1.10;;
76656;SDS011;65576;47.714;9.414;2024-03-22T03:17:33;1.15;;;1.05;;
76656;SDS011;65576;47.714;9.414;2024-03-22T03:19:58;1.27;;;1.17;;
76656;SDS011;65576;47.714;9.414;2024-03-22T03:22:23;1.40;;;1.30;;
76656;SDS011;65576;47.714;9.414;2024-03-22T03:24:49;1.33;;;1.17;;
76656;SDS011;65576;47.714;9.414;2024-03-22T03:27:14;1.15;;;0.80;;
76656;SDS011;65576;47.714;9.414;2024-03-22T03:29:39;0.70;;;0.70;;
76656;SDS011;65576;47.714;9.414;2024-03-22T03:32:04;2.00;;;0.98;;
76656;SDS011;65576;47.714;9.414;2024-03-22T03:34:30;2.60;;;1.25;;
76656;SDS011;65576;47.714;9.414;2024-03-22T03:36:55;5.97;;;1.05;;
76656;SDS011;65576;47.714;9.414;2024-03-22T03:39:21;1.77;;;1.52;;
76656;SDS011;65576;47.714;9.414;2024-03-22T03:41:46;3.40;;;1.13;;
76656;SDS011;65576;47.714;9.414;2024-03-22T03:44:11;2.13;;;1.17;;
76656;SDS011;65576;47.714;9.414;2024-03-22T03:46:36;2.42;;;2.22;;
76656;SDS011;65576;47.714;9.414;2024-03-22T03:49:02;2.28;;;1.40;;
76656;SDS011;65576;47.714;9.414;2024-03-22T03:51:27;1.70;;;1.27;;
76656;SDS011;65576;47.714;9.414;2024-03-22T03:53:52;1.35;;;1.25;;
76656;SDS011;65576;47.714;9.414;2024-03-22T03:56:18;2.50;;;1.52;;
76656;SDS011;65576;47.714;9.414;2024-03-22T03:58:45;1.98;;;1.27;;
76656;SDS011;65576;47.714;9.414;2024-03-22T04:01:11;4.65;;;1.15;;
76656;SDS011;65576;47.714;9.414;2024-03-22T04:03:36;1.73;;;1.60;;
76656;SDS011;65576;47.714;9.414;2024-03-22T04:06:01;1.70;;;1.30;;
76656;SDS011;65576;47.714;9.414;2024-03-22T04:08:27;0.95;;;0.93;;
76656;SDS011;65576;47.714;9.414;2024-03-22T04:10:55;1.35;;;1.25;;
76656;SDS011;65576;47.714;9.414;2024-03-22T04:13:22;1.70;;;1.10;;
76656;SDS011;65576;47.714;9.414;2024-03-22T04:15:48;3.75;;;1.38;;
76656;SDS011;65576;47.714;9.414;2024-03-22T04:18:13;2.83;;;1.45;;
76656;SDS011;65576;47.714;9.414;2024-03-22T04:20:38;3.17;;;2.15;;
76656;SDS011;65576;47.714;9.414;2024-03-22T04:23:04;2.13;;;1.42;;
76656;SDS011;65576;47.714;9.414;2024-03-22T04:25:29;2.70;;;1.65;;
76656;SDS011;65576;47.714;9.414;2024-03-22T04:27:54;1.20;;;0.98;;
76656;SDS011;65576;47.714;9.414;2024-03-22T04:30:20;2.05;;;1.45;;
76656;SDS011;65576;47.714;9.414;2024-03-22T04:32:48;3.15;;;1.98;;
76656;SDS011;65576;47.714;9.414;2024-03-22T04:35:13;2.17;;;1.95;;
76656;SDS011;65576;47.714;9.414;2024-03-22T04:37:38;2.13;;;1.33;;
76656;SDS011;65576;47.714;9.414;2024-03-22T04:40:04;5.80;;;1.67;;
76656;SDS011;65576;47.714;9.414;2024-03-22T04:42:30;1.05;;;1.00;;
76656;SDS011;65576;47.714;9.414;2024-03-22T04:44:55;4.35;;;1.50;;
76656;SDS011;65576;47.714;9.414;2024-03-22T04:47:20;2.95;;;1.58;;
76656;SDS011;65576;47.714;9.414;2024-03-22T04:49:45;1.88;;;1.33;;
76656;SDS011;65576;47.714;9.414;2024-03-22T04:52:11;1.95;;;1.65;;
76656;SDS011;65576;47.714;9.414;2024-03-22T04:54:36;1.80;;;1.33;;
76656;SDS011;65576;47.714;9.414;2024-03-22T04:57:01;1.20;;;1.10;;
76656;SDS011;65576;47.714;9.414;2024-03-22T04:59:27;3.55;;;1.45;;
76656;SDS011;65576;47.714;9.414;2024-03-22T05:01:52;1.45;;;1.35;;
76656;SDS011;65576;47.714;9.414;2024-03-22T05:04:18;2.30;;;1.50;;
76656;SDS011;65576;47.714;9.414;2024-03-22T05:06:43;1.27;;;1.08;;
76656;SDS011;65576;47.714;9.414;2024-03-22T05:09:09;2.28;;;1.75;;
76656;SDS011;65576;47.714;9.414;2024-03-22T05:11:35;1.65;;;1.40;;
76656;SDS011;65576;47.714;9.414;2024-03-22T05:14:00;2.55;;;1.60;;
76656;SDS011;65576;47.714;9.414;2024-03-22T05:16:25;1.67;;;1.35;;
76656;SDS011;65576;47.714;9.414;2024-03-22T05:18:51;3.75;;;1.55;;
76656;SDS011;65576;47.714;9.414;2024-03-22T05:21:16;1.58;;;1.30;;
76656;SDS011;65576;47.714;9.414;2024-03-22T05:23:41;9.68;;;2.08;;
76656;SDS011;65576;47.714;9.414;2024-03-22T05:26:07;2.15;;;1.70;;
76656;SDS011;65576;47.714;9.414;2024-03-22T05:28:32;6.72;;;1.42;;
76656;SDS011;65576;47.714;9.414;2024-03-22T05:30:58;1.42;;;0.98;;
76656;SDS011;65576;47.714;9.414;2024-03-22T05:33:23;2.72;;;1.98;;
76656;SDS011;65576;47.714;9.414;2024-03-22T05:35:49;1.50;;;1.20;;
76656;SDS011;65576;47.714;9.414;2024-03-22T05:38:14;1.67;;;1.40;;
76656;SDS011;65576;47.714;9.414;2024-03-22T05:40:39;1.80;;;1.67;;
76656;SDS011;65576;47.714;9.414;2024-03-22T05:43:05;1.00;;;0.90;;
76656;SDS011;65576;47.714;9.414;2024-03-22T05:45:30;1.38;;;1.25;;
76656;SDS011;65576;47.714;9.414;2024-03-22T05:47:55;4.90;;;1.67;;
76656;SDS011;65576;47.714;9.414;2024-03-22T05:50:21;6.63;;;3.80;;
76656;SDS011;65576;47.714;9.414;2024-03-22T05:52:46;6.82;;;5.15;;
76656;SDS011;65576;47.714;9.414;2024-03-22T05:55:11;7.97;;;4.65;;
76656;SDS011;65576;47.714;9.414;2024-03-22T05:57:37;5.32;;;3.47;;
76656;SDS011;65576;47.714;9.414;2024-03-22T06:00:02;3.13;;;2.83;;
76656;SDS011;65576;47.714;9.414;2024-03-22T06:02:28;5.68;;;3.58;;
76656;SDS011;65576;47.714;9.414;2024-03-22T06:04:53;5.20;;;2.95;;
76656;SDS011;65576;47.714;9.414;2024-03-22T06:07:18;6.85;;;2.95;;
76656;SDS011;65576;47.714;9.414;2024-03-22T06:09:44;6.95;;;2.90;;
76656;SDS011;65576;47.714;9.414;2024-03-22T06:12:12;3.90;;;1.83;;
76656;SDS011;65576;47.714;9.414;2024-03-22T06:14:39;3.90;;;2.33;;
76656;SDS011;65576;47.714;9.414;2024-03-22T06:17:10;3.22;;;2.03;;
76656;SDS011;65576;47.714;9.414;2024-03-22T06:19:35;1.45;;;1.35;;
76656;SDS011;65576;47.714;9.414;2024-03-22T06:22:01;2.50;;;2.17;;
76656;SDS011;65576;47.714;9.414;2024-03-22T06:24:27;3.85;;;2.13;;
76656;SDS011;65576;47.714;9.414;2024-03-22T06:26:52;14.27;;;2.20;;
76656;SDS011;65576;47.714;9.414;2024-03-22T06:29:18;1.85;;;1.48;;
76656;SDS011;65576;47.714;9.414;2024-03-22T06:31:43;2.90;;;1.92;;
76656;SDS011;65576;47.714;9.414;2024-03-22T06:34:09;3.00;;;2.15;;
76656;SDS011;65576;47.714;9.414;2024-03-22T06:36:34;1.63;;;1.50;;
76656;SDS011;65576;47.714;9.414;2024-03-22T06:38:59;2.85;;;1.88;;
76656;SDS011;65576;47.714;9.414;2024-03-22T06:41:25;1.38;;;1.17;;
76656;SDS011;65576;47.714;9.414;2024-03-22T06:43:51;2.90;;;1.60;;
76656;SDS011;65576;47.714;9.414;2024-03-22T06:46:16;3.05;;;1.70;;
76656;SDS011;65576;47.714;9.414;2024-03-22T06:48:41;4.82;;;2.15;;
76656;SDS011;65576;47.714;9.414;2024-03-22T06:51:07;3.28;;;2.15;;
76656;SDS011;65576;47.714;9.414;2024-03-22T06:53:32;2.83;;;1.70;;
76656;SDS011;65576;47.714;9.414;2024-03-22T06:55:57;2.03;;;1.83;;
76656;SDS011;65576;47.714;9.414;2024-03-22T06:58:23;5.65;;;1.88;;
76656;SDS011;65576;47.714;9.414;2024-03-22T07:00:48;6.90;;;2.25;;
76656;SDS011;65576;47.714;9.414;2024-03-22T07:03:14;4.47;;;3.10;;
76656;SDS011;65576;47.714;9.414;2024-03-22T07:05:39;3.75;;;2.28;;
76656;SDS011;65576;47.714;9.414;2024-03-22T07:08:04;4.93;;;2.40;;
76656;SDS011;65576;47.714;9.414;2024-03-22T07:10:30;10.18;;;1.90;;
76656;SDS011;65576;47.714;9.414;2024-03-22T07:12:56;1.50;;;1.40;;
76656;SDS011;65576;47.714;9.414;2024-03-22T07:15:25;2.17;;;1.55;;
76656;SDS011;65576;47.714;9.414;2024-03-22T07:17:50;1.80;;;1.60;;
76656;SDS011;65576;47.714;9.414;2024-03-22T07:20:16;1.70;;;1.50;;
76656;SDS011;65576;47.714;9.414;2024-03-22T07:22:41;2.95;;;2.10;;
76656;SDS011;65576;47.714;9.414;2024-03-22T07:25:07;2.33;;;2.00;;
76656;SDS011;65576;47.714;9.414;2024-03-22T07:27:34;3.67;;;2.35;;
76656;SDS011;65576;47.714;9.414;2024-03-22T07:30:00;1.98;;;1.50;;
76656;SDS011;65576;47.714;9.414;2024-03-22T07:32:26;4.70;;;2.00;;
76656;SDS011;65576;47.714;9.414;2024-03-22T07:34:51;2.50;;;2.25;;
76656;SDS011;65576;47.714;9.414;2024-03-22T07:37:16;3.03;;;1.90;;
76656;SDS011;65576;47.714;9.414;2024-03-22T07:39:42;3.72;;;2.13;;
76656;SDS011;65576;47.714;9.414;2024-03-22T07:42:07;4.60;;;2.35;;
76656;SDS011;65576;47.714;9.414;2024-03-22T07:44:32;2.92;;;1.90;;
76656;SDS011;65576;47.714;9.414;2024-03-22T07:46:58;2.47;;;2.10;;
76656;SDS011;65576;47.714;9.414;2024-03-22T07:49:23;2.50;;;1.88;;
76656;SDS011;65576;47.714;9.414;2024-03-22T07:51:48;2.05;;;1.85;;
76656;SDS011;65576;47.714;9.414;2024-03-22T07:54:14;1.90;;;1.63;;
76656;SDS011;65576;47.714;9.414;2024-03-22T07:56:39;2.53;;;2.03;;
76656;SDS011;65576;47.714;9.414;2024-03-22T07:59:04;4.07;;;2.03;;
76656;SDS011;65576;47.714;9.414;2024-03-22T08:01:30;3.70;;;2.25;;
76656;SDS011;65576;47.714;9.414;2024-03-22T08:03:55;3.03;;;2.25;;
76656;SDS011;65576;47.714;9.414;2024-03-22T08:06:20;2.28;;;1.90;;
76656;SDS011;65576;47.714;9.414;2024-03-22T08:08:46;2.72;;;2.30;;
76656;SDS011;65576;47.714;9.414;2024-03-22T08:11:11;2.75;;;1.73;;
76656;SDS011;65576;47.714;9.414;2024-03-22T08:13:37;2.30;;;2.03;;
76656;SDS011;65576;47.714;9.414;2024-03-22T08:16:02;1.95;;;1.80;;
76656;SDS011;65576;47.714;9.414;2024-03-22T08:18:28;3.30;;;2.20;;
76656;SDS011;65576;47.714;9.414;2024-03-22T08:20:54;3.55;;;2.22;;
76656;SDS011;65576;47.714;9.414;2024-03-22T08:23:19;9.70;;;2.75;;
76656;SDS011;65576;47.714;9.414;2024-03-22T08:25:45;4.28;;;1.95;;
76656;SDS011;65576;47.714;9.414;2024-03-22T08:28:11;4.60;;;2.20;;
76656;SDS011;65576;47.714;9.414;2024-03-22T08:30:38;3.13;;;2.00;;
76656;SDS011;65576;47.714;9.414;2024-03-22T08:33:03;2.97;;;1.80;;
76656;SDS011;65576;47.714;9.414;2024-03-22T08:35:29;2.45;;;2.08;;
76656;SDS011;65576;47.714;9.414;2024-03-22T08:37:55;10.38;;;2.40;;
76656;SDS011;65576;47.714;9.414;2024-03-22T08:40:21;3.22;;;2.30;;
76656;SDS011;65576;47.714;9.414;2024-03-22T08:42:46;4.38;;;3.20;;
76656;SDS011;65576;47.714;9.414;2024-03-22T08:45:11;5.07;;;2.78;;
76656;SDS011;65576;47.714;9.414;2024-03-22T08:47:37;3.20;;;2.30;;
76656;SDS011;65576;47.714;9.414;2024-03-22T08:50:02;2.85;;;2.25;;
76656;SDS011;65576;47.714;9.414;2024-03-22T08:52:28;5.75;;;2.60;;
76656;SDS011;65576;47.714;9.414;2024-03-22T08:54:53;5.43;;;2.97;;
76656;SDS011;65576;47.714;9.414;2024-03-22T08:57:19;3.20;;;2.35;;
76656;SDS011;65576;47.714;9.414;2024-03-22T08:59:44;4.45;;;2.40;;
76656;SDS011;65576;47.714;9.414;2024-03-22T09:02:10;3.90;;;2.72;;
76656;SDS011;65576;47.714;9.414;2024-03-22T09:04:36;6.53;;;2.95;;
76656;SDS011;65576;47.714;9.414;2024-03-22T09:07:01;3.85;;;2.50;;
76656;SDS011;65576;47.714;9.414;2024-03-22T09:09:27;3.08;;;2.20;;
76656;SDS011;65576;47.714;9.414;2024-03-22T09:11:52;6.90;;;2.92;;
76656;SDS011;65576;47.714;9.414;2024-03-22T09:14:18;3.28;;;2.28;;
76656;SDS011;65576;47.714;9.414;2024-03-22T09:16:43;3.95;;;2.50;;
76656;SDS011;65576;47.714;9.414;2024-03-22T09:19:08;3.00;;;2.35;;
76656;SDS011;65576;47.714;9.414;2024-03-22T09:21:35;2.35;;;2.10;;
76656;SDS011;65576;47.714;9.414;2024-03-22T09:24:01;12.13;;;2.33;;
76656;SDS011;65576;47.714;9.414;2024-03-22T09:26:28;4.95;;;2.40;;
76656;SDS011;65576;47.714;9.414;2024-03-22T09:28:53;4.10;;;2.97;;
76656;SDS011;65576;47.714;9.414;2024-03-22T09:31:19;3.28;;;2.20;;
76656;SDS011;65576;47.714;9.414;2024-03-22T09:33:44;2.50;;;2.20;;
76656;SDS011;65576;47.714;9.414;2024-03-22T09:36:09;4.97;;;2.45;;
76656;SDS011;65576;47.714;9.414;2024-03-22T09:38:34;5.10;;;2.53;;
76656;SDS011;65576;47.714;9.414;2024-03-22T09:41:00;3.17;;;2.35;;
76656;SDS011;65576;47.714;9.414;2024-03-22T09:43:26;3.70;;;2.22;;
76656;SDS011;65576;47.714;9.414;2024-03-22T09:45:52;2.95;;;2.33;;
76656;SDS011;65576;47.714;9.414;2024-03-22T09:48:18;3.90;;;3.10;;
76656;SDS011;65576;47.714;9.414;2024-03-22T09:50:44;3.00;;;2.35;;
76656;SDS011;65576;47.714;9.414;2024-03-22T09:53:11;3.40;;;2.55;;
76656;SDS011;65576;47.714;9.414;2024-03-22T09:55:37;4.72;;;2.65;;
76656;SDS011;65576;47.714;9.414;2024-03-22T09:58:04;3.05;;;2.33;;
76656;SDS011;65576;47.714;9.414;2024-03-22T10:00:30;2.40;;;1.92;;
76656;SDS011;65576;47.714;9.414;2024-03-22T10:02:56;2.53;;;2.08;;
76656;SDS011;65576;47.714;9.414;2024-03-22T10:05:21;3.20;;;1.90;;
76656;SDS011;65576;47.714;9.414;2024-03-22T10:07:47;3.78;;;2.47;;
76656;SDS011;65576;47.714;9.414;2024-03-22T10:10:12;3.08;;;1.90;;
76656;SDS011;65576;47.714;9.414;2024-03-22T10:12:39;3.95;;;2.47;;
76656;SDS011;65576;47.714;9.414;2024-03-22T10:15:04;2.28;;;1.88;;
76656;SDS011;65576;47.714;9.414;2024-03-22T10:17:30;3.97;;;2.50;;
76656;SDS011;65576;47.714;9.414;2024-03-22T10:19:55;3.70;;;2.13;;
76656;SDS011;65576;47.714;9.414;2024-03-22T10:22:21;7.57;;;2.03;;
76656;SDS011;65576;47.714;9.414;2024-03-22T10:24:46;4.53;;;2.20;;
76656;SDS011;65576;47.714;9.414;2024-03-22T10:27:12;1.98;;;1.77;;
76656;SDS011;65576;47.714;9.414;2024-03-22T10:29:38;4.07;;;2.22;;
76656;SDS011;65576;47.714;9.414;2024-03-22T10:32:04;4.53;;;1.73;;
76656;SDS011;65576;47.714;9.414;2024-03-22T10:34:30;1.75;;;1.48;;
76656;SDS011;65576;47.714;9.414;2024-03-22T10:36:56;5.05;;;2.28;;
76656;SDS011;65576;47.714;9.414;2024-03-22T10:39:22;4.10;;;2.13;;
76656;SDS011;65576;47.714;9.414;2024-03-22T10:41:48;2.42;;;1.50;;
76656;SDS011;65576;47.714;9.414;2024-03-22T10:44:14;1.77;;;1.50;;
76656;SDS011;65576;47.714;9.414;2024-03-22T10:46:43;3.25;;;1.70;;
76656;SDS011;65576;47.714;9.414;2024-03-22T10:49:11;6.43;;;1.60;;
76656;SDS011;65576;47.714;9.414;2024-03-22T10:51:40;2.33;;;1.73;;
76656;SDS011;65576;47.714;9.414;2024-03-22T10:54:08;1.88;;;1.50;;
76656;SDS011;65576;47.714;9.414;2024-03-22T10:56:34;6.47;;;1.60;;
76656;SDS011;65576;47.714;9.414;2024-03-22T10:59:02;1.63;;;1.38;;
76656;SDS011;65576;47.714;9.414;2024-03-22T11:01:28;1.73;;;1.40;;
76656;SDS011;65576;47.714;9.414;2024-03-22T11:04:04;3.92;;;1.35;;
76656;SDS011;65576;47.714;9.414;2024-03-22T11:06:31;2.13;;;1.60;;
76656;SDS011;65576;47.714;9.414;2024-03-22T11:08:58;3.60;;;2.03;;
76656;SDS011;65576;47.714;9.414;2024-03-22T11:11:25;2.63;;;1.60;;
76656;SDS011;65576;47.714;9.414;2024-03-22T11:13:53;3.85;;;1.65;;
76656;SDS011;65576;47.714;9.414;2024-03-22T11:16:19;3.50;;;2.20;;
76656;SDS011;65576;47.714;9.414;2024-03-22T11:18:44;2.72;;;1.65;;
76656;SDS011;65576;47.714;9.414;2024-03-22T11:21:10;3.13;;;1.92;;
76656;SDS011;65576;47.714;9.414;2024-03-22T11:23:36;2.35;;;1.80;;
76656;SDS011;65576;47.714;9.414;2024-03-22T11:26:02;4.00;;;1.90;;
76656;SDS011;65576;47.714;9.414;2024-03-22T11:28:28;2.55;;;1.73;;
76656;SDS011;65576;47.714;9.414;2024-03-22T11:30:53;2.97;;;1.90;;
76656;SDS011;65576;47.714;9.414;2024-03-22T11:33:18;3.28;;;1.85;;
76656;SDS011;65576;47.714;9.414;2024-03-22T11:35:44;2.45;;;1.58;;
76656;SDS011;65576;47.714;9.414;2024-03-22T11:38:09;5.20;;;1.83;;
76656;SDS011;65576;47.714;9.414;2024-03-22T11:40:34;2.03;;;1.65;;
76656;SDS011;65576;47.714;9.414;2024-03-22T11:43:00;2.55;;;2.13;;
76656;SDS011;65576;47.714;9.414;2024-03-22T11:45:27;8.55;;;2.38;;
76656;SDS011;65576;47.714;9.414;2024-03-22T11:47:52;1.58;;;1.45;;
76656;SDS011;65576;47.714;9.414;2024-03-22T11:50:18;3.25;;;1.73;;
76656;SDS011;65576;47.714;9.414;2024-03-22T11:52:44;2.05;;;1.52;;
76656;SDS011;65576;47.714;9.414;2024-03-22T11:55:12;2.88;;;1.73;;
76656;SDS011;65576;47.714;9.414;2024-03-22T11:57:39;3.08;;;1.80;;
76656;SDS011;65576;47.714;9.414;2024-03-22T12:00:04;2.42;;;1.70;;
76656;SDS011;65576;47.714;9.414;2024-03-22T12:02:34;3.97;;;1.58;;
76656;SDS011;65576;47.714;9.414;2024-03-22T12:05:01;5.63;;;1.92;;
76656;SDS011;65576;47.714;9.414;2024-03-22T12:07:26;1.83;;;1.27;;
76656;SDS011;65576;47.714;9.414;2024-03-22T12:09:52;2.67;;;1.40;;
76656;SDS011;65576;47.714;9.414;2024-03-22T12:12:17;2.40;;;1.73;;
76656;SDS011;65576;47.714;9.414;2024-03-22T12:14:42;1.63;;;1.33;;
76656;SDS011;65576;47.714;9.414;2024-03-22T12:17:08;1.30;;;1.20;;
76656;SDS011;65576;47.714;9.414;2024-03-22T12:19:33;2.95;;;1.75;;
76656;SDS011;65576;47.714;9.414;2024-03-22T12:21:59;1.65;;;1.20;;
76656;SDS011;65576;47.714;9.414;2024-03-22T12:24:25;2.05;;;1.63;;
76656;SDS011;65576;47.714;9.414;2024-03-22T12:26:52;3.63;;;1.50;;
76656;SDS011;65576;47.714;9.414;2024-03-22T12:29:18;1.40;;;1.30;;
76656;SDS011;65576;47.714;9.414;2024-03-22T12:31:43;1.90;;;1.30;;
76656;SDS011;65576;47.714;9.414;2024-03-22T12:34:09;1.17;;;1.02;;
76656;SDS011;65576;47.714;9.414;2024-03-22T12:36:34;1.13;;;1.02;;
76656;SDS011;65576;47.714;9.414;2024-03-22T12:39:00;1.02;;;0.93;;
76656;SDS011;65576;47.714;9.414;2024-03-22T12:41:25;3.20;;;1.20;;
76656;SDS011;65576;47.714;9.414;2024-03-22T12:43:52;1.25;;;1.00;;
76656;SDS011;65576;47.714;9.414;2024-03-22T12:46:17;2.60;;;0.80;;
76656;SDS011;65576;47.714;9.414;2024-03-22T12:48:43;4.95;;;1.10;;
76656;SDS011;65576;47.714;9.414;2024-03-22T12:51:08;1.10;;;1.05;;
76656;SDS011;65576;47.714;9.414;2024-03-22T12:53:34;4.05;;;1.15;;
76656;SDS011;65576;47.714;9.414;2024-03-22T12:55:59;1.45;;;1.00;;
76656;SDS011;65576;47.714;9.414;2024-03-22T12:58:24;1.42;;;0.95;;
76656;SDS011;65576;47.714;9.414;2024-03-22T13:00:49;2.35;;;1.35;;
76656;SDS011;65576;47.714;9.414;2024-03-22T13:03:15;1.52;;;1.05;;
76656;SDS011;65576;47.714;9.414;2024-03-22T13:05:41;1.77;;;1.15;;
76656;SDS011;65576;47.714;9.414;2024-03-22T13:08:06;1.70;;;0.82;;
76656;SDS011;65576;47.714;9.414;2024-03-22T13:10:32;1.10;;;0.95;;
76656;SDS011;65576;47.714;9.414;2024-03-22T13:12:57;1.23;;;0.80;;
76656;SDS011;65576;47.714;9.414;2024-03-22T13:15:22;1.38;;;0.93;;
76656;SDS011;65576;47.714;9.414;2024-03-22T13:17:48;2.40;;;0.90;;
76656;SDS011;65576;47.714;9.414;2024-03-22T13:20:13;2.17;;;0.90;;
76656;SDS011;65576;47.714;9.414;2024-03-22T13:22:40;5.55;;;1.25;;
76656;SDS011;65576;47.714;9.414;2024-03-22T13:25:06;0.70;;;0.70;;
76656;SDS011;65576;47.714;9.414;2024-03-22T13:27:35;0.80;;;0.80;;
76656;SDS011;65576;47.714;9.414;2024-03-22T13:30:00;3.17;;;1.00;;
76656;SDS011;65576;47.714;9.414;2024-03-22T13:32:27;1.23;;;1.00;;
76656;SDS011;65576;47.714;9.414;2024-03-22T13:34:52;1.95;;;0.88;;
76656;SDS011;65576;47.714;9.414;2024-03-22T13:37:17;1.05;;;0.95;;
76656;SDS011;65576;47.714;9.414;2024-03-22T13:39:42;1.55;;;0.90;;
76656;SDS011;65576;47.714;9.414;2024-03-22T13:42:08;0.90;;;0.80;;
76656;SDS011;65576;47.714;9.414;2024-03-22T13:44:34;1.20;;;1.10;;
76656;SDS011;65576;47.714;9.414;2024-03-22T13:46:59;0.80;;;0.80;;
76656;SDS011;65576;47.714;9.414;2024-03-22T13:49:25;4.18;;;0.80;;
76656;SDS011;65576;47.714;9.414;2024-03-22T13:51:50;0.95;;;0.73;;
76656;SDS011;65576;47.714;9.414;2024-03-22T13:54:16;1.48;;;0.90;;
76656;SDS011;65576;47.714;9.414;2024-03-22T13:56:41;0.80;;;0.80;;
76656;SDS011;65576;47.714;9.414;2024-03-22T13:59:07;0.77;;;0.70;;
76656;SDS011;65576;47.714;9.414;2024-03-22T14:01:34;0.68;;;0.68;;
76656;SDS011;65576;47.714;9.414;2024-03-22T14:04:00;0.70;;;0.70;;
76656;SDS011;65576;47.714;9.414;2024-03-22T14:06:25;1.67;;;0.90;;
76656;SDS011;65576;47.714;9.414;2024-03-22T14:08:50;0.55;;;0.55;;
76656;SDS011;65576;47.714;9.414;2024-03-22T14:11:19;3.05;;;1.05;;
76656;SDS011;65576;47.714;9.414;2024-03-22T14:13:44;2.05;;;1.00;;
76656;SDS011;65576;47.714;9.414;2024-03-22T14:16:10;1.35;;;0.70;;
76656;SDS011;65576;47.714;9.414;2024-03-22T14:18:35;3.03;;;1.20;;
76656;SDS011;65576;47.714;9.414;2024-03-22T14:21:01;2.17;;;0.90;;
76656;SDS011;65576;47.714;9.414;2024-03-22T14:23:27;2.22;;;0.70;;
76656;SDS011;65576;47.714;9.414;2024-03-22T14:25:54;1.55;;;0.90;;
76656;SDS011;65576;47.714;9.414;2024-03-22T14:28:19;1.13;;;1.00;;
76656;SDS011;65576;47.714;9.414;2024-03-22T14:30:45;1.15;;;0.90;;
76656;SDS011;65576;47.714;9.414;2024-03-22T14:33:10;1.27;;;0.80;;
76656;SDS011;65576;47.714;9.414;2024-03-22T14:35:35;0.65;;;0.55;;
76656;SDS011;65576;47.714;9.414;2024-03-22T14:38:02;1.17;;;0.88;;